Pescara International Airport LIBP

Flugplatz Daten

Name: Pescara International Airport

Ident: LIBP

Lat: 42,43170166

Long: 14,18109989

Platzhöhe: 48 ft

IataCode: PSR

City: Pescara

Homepage: http://www.abruzzo-airport.it/eng/index.php

Metar

2021/12/04 00:20
LIBP 040020Z AUTO 26005KT 230V290 9999 NCD 07/04 Q1014

Taf

2021/12/03 00:00
TAF LIBP 032300Z 0400/0424 16008KT 9999 OVC040
Gewünschte Webcam nicht vorhanden? Dann fügen Sie eine hinzu. Sie wird dann so schnell wie möglich freigeschaltet
Url: Title: